createdAt,value
2022-11-23T00:30:00.338Z,96289.80
2022-11-23T00:32:36.408Z,96290.34
2022-11-23T00:35:14.490Z,96299.09
2022-11-23T00:37:59.777Z,96287.14
2022-11-23T00:41:18.580Z,96284.77
2022-11-23T00:43:38.264Z,96284.54
2022-11-23T00:46:37.342Z,96280.87
2022-11-23T00:53:04.654Z,96269.25
2022-11-23T01:20:51.174Z,96266.95
2022-11-23T01:23:32.798Z,96268.88
2022-11-23T01:26:11.504Z,96273.59
2022-11-23T01:28:54.219Z,96271.39
2022-11-23T01:31:48.828Z,96270.48
2022-11-23T01:34:54.166Z,96268.22
2022-11-23T01:40:44.269Z,96265.22
2022-11-23T01:43:22.692Z,96248.88
2022-11-23T01:46:22.914Z,96249.80
2022-11-23T01:49:40.940Z,96243.29
2022-11-23T02:32:13.979Z,96183.60
2022-11-23T02:34:52.802Z,96194.99
2022-11-23T02:37:28.378Z,96191.35
2022-11-23T02:40:09.799Z,96186.03
2022-11-23T02:43:14.086Z,96201.20
2022-11-23T02:46:17.111Z,96201.20
2022-11-23T02:49:22.279Z,96203.48
2022-11-23T02:55:58.764Z,96210.55
2022-11-23T03:19:33.478Z,96169.50
2022-11-23T03:22:08.042Z,96169.69
2022-11-23T03:24:40.233Z,96179.69
2022-11-23T03:27:19.871Z,96177.45
2022-11-23T03:29:52.875Z,96176.84
2022-11-23T03:32:47.059Z,96177.23
2022-11-23T03:39:09.043Z,96168.25
2022-11-23T03:41:54.648Z,96157.77
2022-11-23T03:45:20.067Z,96158.25
2022-11-23T03:48:36.089Z,96170.68
2022-11-23T03:57:55.522Z,96144.72
2022-11-23T04:00:23.638Z,96158.80
2022-11-23T04:02:51.638Z,96161.14
2022-11-23T04:05:30.197Z,96159.25
2022-11-23T04:08:06.197Z,96162.95
2022-11-23T04:10:34.343Z,96170.38
2022-11-23T04:13:09.215Z,96164.83
2022-11-23T04:15:37.517Z,96160.58
2022-11-23T04:18:06.126Z,96163.80
2022-11-23T04:20:33.967Z,96166.00
2022-11-23T04:23:01.801Z,96157.77
2022-11-23T04:25:30.079Z,96146.34
2022-11-23T04:27:58.740Z,96144.23
2022-11-23T04:30:26.969Z,96148.78
2022-11-23T04:32:56.698Z,96155.20
2022-11-23T04:35:24.676Z,96165.84
2022-11-23T04:37:53.668Z,96166.91
2022-11-23T04:40:23.279Z,96169.05
2022-11-23T04:43:00.351Z,96162.92
2022-11-23T04:45:25.739Z,96157.08
2022-11-23T04:47:54.424Z,96158.09
2022-11-23T04:50:23.208Z,96146.96
2022-11-23T04:52:52.615Z,96145.95
2022-11-23T04:55:22.155Z,96152.06
2022-11-23T04:57:51.742Z,96136.97
2022-11-23T05:00:19.828Z,96138.30
2022-11-23T05:02:48.129Z,96152.37
2022-11-23T05:05:17.871Z,96152.94
2022-11-23T05:07:45.481Z,96139.63
2022-11-23T05:10:13.329Z,96142.52
2022-11-23T05:12:43.141Z,96149.63
2022-11-23T05:15:15.865Z,96145.63
2022-11-23T05:17:46.302Z,96140.02
2022-11-23T05:20:16.577Z,96141.80
2022-11-23T05:22:46.174Z,96140.41
2022-11-23T05:25:15.740Z,96137.42
2022-11-23T05:27:44.876Z,96144.00
2022-11-23T05:30:16.296Z,96135.47
2022-11-23T05:32:45.996Z,96145.81
2022-11-23T05:35:14.696Z,96149.97
2022-11-23T05:37:42.484Z,96143.24
2022-11-23T05:40:12.234Z,96142.63
2022-11-23T05:42:40.190Z,96149.44
2022-11-23T05:45:12.804Z,96155.53
2022-11-23T05:47:42.444Z,96152.32
2022-11-23T05:50:12.518Z,96158.09
2022-11-23T05:52:42.523Z,96158.02
2022-11-23T05:55:11.232Z,96156.62
2022-11-23T05:57:39.748Z,96165.62
2022-11-23T06:00:12.458Z,96169.54
2022-11-23T06:02:44.680Z,96166.33
2022-11-23T06:05:13.087Z,96161.70
2022-11-23T06:07:42.869Z,96167.52
2022-11-23T06:10:13.063Z,96176.50
2022-11-23T06:12:43.035Z,96176.98
2022-11-23T06:15:18.692Z,96167.56
2022-11-23T06:17:49.422Z,96166.23
2022-11-23T06:20:19.240Z,96170.23
2022-11-23T06:22:55.042Z,96165.16
2022-11-23T06:25:24.628Z,96164.05
2022-11-23T06:27:56.653Z,96168.28
2022-11-23T06:30:28.278Z,96160.55
2022-11-23T06:32:58.060Z,96171.42
2022-11-23T06:35:25.872Z,96167.35
2022-11-23T06:37:54.309Z,96169.69
2022-11-23T06:40:22.432Z,96159.52
2022-11-23T06:42:52.770Z,96161.30
2022-11-23T06:45:22.579Z,96159.12
2022-11-23T06:47:55.906Z,96158.49
2022-11-23T06:50:23.987Z,96157.05
2022-11-23T06:52:57.014Z,96155.88
2022-11-23T06:55:27.090Z,96160.83
2022-11-23T06:57:58.431Z,96162.83
2022-11-23T07:00:26.372Z,96167.86
2022-11-23T07:02:56.060Z,96168.80
2022-11-23T07:05:25.514Z,96172.16
2022-11-23T07:07:54.478Z,96173.09
2022-11-23T07:10:25.377Z,96166.58
2022-11-23T07:12:55.125Z,96165.16
2022-11-23T07:15:23.392Z,96158.66
2022-11-23T07:17:54.595Z,96158.32
2022-11-23T07:20:23.216Z,96168.34
2022-11-23T07:23:02.896Z,96163.16
2022-11-23T07:25:33.374Z,96171.86
2022-11-23T07:28:02.460Z,96177.34
2022-11-23T07:30:32.933Z,96182.81
2022-11-23T07:33:04.468Z,96181.95
2022-11-23T07:35:32.830Z,96171.44
2022-11-23T07:38:01.055Z,96170.78
2022-11-23T07:40:29.320Z,96173.06
2022-11-23T07:43:02.309Z,96173.20
2022-11-23T07:45:30.485Z,96171.45
2022-11-23T07:48:03.688Z,96165.94
2022-11-23T07:50:32.423Z,96165.77
2022-11-23T07:53:03.369Z,96161.58
2022-11-23T07:55:31.359Z,96170.28
2022-11-23T07:57:59.850Z,96163.44
2022-11-23T08:00:29.372Z,96151.80
2022-11-23T08:03:26.276Z,96157.49
2022-11-23T08:05:28.757Z,96163.44
2022-11-23T08:08:01.265Z,96157.13
2022-11-23T08:10:30.925Z,96154.28
2022-11-23T08:13:00.357Z,96152.53
2022-11-23T08:15:28.286Z,96153.44
2022-11-23T08:17:59.027Z,96152.23
2022-11-23T08:20:29.258Z,96155.04
2022-11-23T08:22:57.971Z,96153.62
2022-11-23T08:25:28.229Z,96147.60
2022-11-23T08:28:02.440Z,96153.63
2022-11-23T08:30:32.166Z,96155.66
2022-11-23T08:33:06.451Z,96156.12
2022-11-23T08:35:39.121Z,96152.25
2022-11-23T08:38:09.712Z,96150.27
2022-11-23T08:40:38.377Z,96145.40
2022-11-23T08:43:06.876Z,96145.09
2022-11-23T08:45:34.680Z,96147.20
2022-11-23T08:48:05.126Z,96136.95
2022-11-23T08:50:34.838Z,96134.97
2022-11-23T08:53:02.987Z,96135.88
2022-11-23T08:55:30.707Z,96134.55
2022-11-23T08:57:59.759Z,96130.45
2022-11-23T09:00:27.971Z,96125.57
2022-11-23T09:02:58.420Z,96126.81
2022-11-23T09:05:28.759Z,96116.34
2022-11-23T09:08:01.618Z,96114.45
2022-11-23T09:10:29.726Z,96111.69
2022-11-23T09:12:59.048Z,96114.80
2022-11-23T09:15:26.994Z,96116.59
2022-11-23T09:17:56.115Z,96108.80
2022-11-23T09:20:24.205Z,96108.02
2022-11-23T09:22:53.975Z,96108.02
2022-11-23T09:25:22.830Z,96105.02
2022-11-23T09:27:59.253Z,96106.59
2022-11-23T09:30:28.109Z,96099.02
2022-11-23T09:32:57.776Z,96110.38
2022-11-23T09:35:26.263Z,96113.73
2022-11-23T09:37:58.551Z,96110.19
2022-11-23T09:40:34.667Z,96100.50
2022-11-23T09:43:31.861Z,96102.73
2022-11-23T09:46:05.037Z,96097.63
2022-11-23T09:49:04.327Z,96103.31
2022-11-23T09:51:34.407Z,96089.86
2022-11-23T09:54:13.448Z,96087.73
2022-11-23T09:56:42.913Z,96096.65
2022-11-23T09:59:32.060Z,96095.67
2022-11-23T10:02:01.435Z,96091.13
2022-11-23T10:04:35.815Z,96096.70
2022-11-23T10:07:23.766Z,96093.23
2022-11-23T10:10:21.484Z,96080.44
2022-11-23T10:13:03.437Z,96083.66
2022-11-23T10:15:39.326Z,96078.66
2022-11-23T10:18:37.223Z,96081.66
2022-11-23T10:21:31.740Z,96077.55
2022-11-23T10:24:19.588Z,96076.88
2022-11-23T10:26:49.931Z,96068.86
2022-11-23T10:29:26.460Z,96059.71
2022-11-23T10:31:57.303Z,96062.95
2022-11-23T10:34:32.739Z,96066.05
2022-11-23T10:37:00.966Z,96063.94
2022-11-23T10:39:28.926Z,96063.72
2022-11-23T10:42:01.408Z,96071.40
2022-11-23T10:44:38.065Z,96070.30
2022-11-23T10:47:06.169Z,96069.95
2022-11-23T10:49:35.838Z,96073.41
2022-11-23T10:52:32.652Z,96069.08
2022-11-23T10:55:05.251Z,96069.96
2022-11-23T10:57:43.230Z,96073.97
2022-11-23T11:00:16.424Z,96077.42
2022-11-23T11:02:48.146Z,96074.75
2022-11-23T11:06:07.417Z,96071.73
2022-11-23T11:08:16.769Z,96067.18
2022-11-23T11:11:02.080Z,96067.71
2022-11-23T11:13:43.465Z,96072.39
2022-11-23T11:16:37.176Z,96074.75
2022-11-23T11:19:27.515Z,96070.07
2022-11-23T11:21:57.252Z,96065.25
2022-11-23T11:24:42.232Z,96070.95
2022-11-23T11:27:23.404Z,96064.48
2022-11-23T11:29:59.376Z,96063.48
2022-11-23T11:32:41.614Z,96065.95
2022-11-23T11:35:23.695Z,96060.14
2022-11-23T11:37:55.578Z,96058.14
2022-11-23T11:40:46.850Z,96048.88
2022-11-23T11:43:40.261Z,96041.98
2022-11-23T11:46:31.284Z,96044.86
2022-11-23T11:48:54.620Z,96052.46
2022-11-23T11:51:42.527Z,96046.88
2022-11-23T11:54:31.707Z,96042.99
2022-11-23T11:57:08.530Z,96048.10
2022-11-23T11:59:43.262Z,96040.98
2022-11-23T12:02:27.399Z,96034.09
2022-11-23T12:05:15.898Z,96038.31
2022-11-23T12:08:12.422Z,96034.09
2022-11-23T12:11:01.605Z,96037.30
2022-11-23T12:13:33.261Z,96033.42
2022-11-23T12:16:39.813Z,96038.31
2022-11-23T12:19:18.978Z,96039.53
2022-11-23T12:22:26.782Z,96040.77
2022-11-23T12:25:18.734Z,96043.33
2022-11-23T12:28:16.157Z,96036.75
2022-11-23T12:31:21.876Z,96033.75
2022-11-23T12:34:29.156Z,96027.73
2022-11-23T12:37:14.724Z,96018.27
2022-11-23T12:40:24.681Z,96026.06
2022-11-23T12:43:04.093Z,96023.71
2022-11-23T12:45:44.339Z,96028.84
2022-11-23T12:48:32.707Z,96026.39
2022-11-23T12:51:05.806Z,96018.92
2022-11-23T12:54:02.152Z,96016.71
2022-11-23T12:56:51.415Z,96029.17
2022-11-23T12:59:24.943Z,96031.73
2022-11-23T13:02:01.056Z,96022.17
2022-11-23T13:04:46.810Z,96016.91
2022-11-23T13:07:44.887Z,96035.64
2022-11-23T13:10:33.459Z,96035.19
2022-11-23T13:13:31.073Z,96033.70
2022-11-23T13:16:36.428Z,96033.59
2022-11-23T13:19:43.361Z,96024.89
2022-11-23T13:22:15.668Z,96018.16
2022-11-23T13:25:11.902Z,96015.73
2022-11-23T13:27:50.843Z,96022.06
2022-11-23T13:31:14.700Z,96020.94
2022-11-23T13:33:28.530Z,96022.73
2022-11-23T13:36:03.590Z,96025.20
2022-11-23T13:38:50.274Z,96038.34
2022-11-23T13:41:44.495Z,96037.14
2022-11-23T13:44:30.481Z,96037.46
2022-11-23T13:47:26.404Z,96038.13
2022-11-23T13:50:32.866Z,96028.97
2022-11-23T13:52:54.162Z,96022.42
2022-11-23T13:55:32.779Z,96018.97
2022-11-23T13:58:26.036Z,96016.83
2022-11-23T14:00:57.156Z,96026.19
2022-11-23T14:03:50.067Z,96023.88
2022-11-23T14:06:35.115Z,96026.23
2022-11-23T14:09:25.166Z,96028.14
2022-11-23T14:12:07.108Z,96031.48
2022-11-23T14:14:55.506Z,96033.04
2022-11-23T14:18:14.775Z,96035.19
2022-11-23T14:21:03.230Z,96032.50
2022-11-23T14:24:19.879Z,96040.21
2022-11-23T14:27:39.098Z,96027.72
2022-11-23T14:30:20.316Z,96030.84
2022-11-23T14:33:09.292Z,96040.09
2022-11-23T14:36:12.814Z,96046.88
2022-11-23T14:39:21.579Z,96048.11
2022-11-23T14:42:01.714Z,96046.66
2022-11-23T14:44:38.421Z,96046.68
2022-11-23T14:47:11.692Z,96044.00
2022-11-23T14:49:50.939Z,96032.73
2022-11-23T14:52:23.546Z,96034.52
2022-11-23T14:54:55.332Z,96041.86
2022-11-23T14:57:29.565Z,96044.10
2022-11-23T15:00:05.781Z,96047.75
2022-11-23T15:02:39.607Z,96046.86
2022-11-23T15:05:23.574Z,96044.63
2022-11-23T15:08:08.720Z,96049.86
2022-11-23T15:11:15.354Z,96047.94
2022-11-23T15:13:45.890Z,96051.61
2022-11-23T15:16:16.292Z,96047.83
2022-11-23T15:18:47.919Z,96057.83
2022-11-23T15:21:36.045Z,96056.38
2022-11-23T15:24:05.014Z,96059.92
2022-11-23T15:26:48.149Z,96053.13
2022-11-23T15:29:03.916Z,96056.57
2022-11-23T15:31:37.185Z,96058.00
2022-11-23T15:34:17.026Z,96049.65
2022-11-23T15:36:46.217Z,96047.38
2022-11-23T15:39:21.462Z,96055.48
2022-11-23T15:41:49.880Z,96054.03
2022-11-23T15:44:25.674Z,96053.91
2022-11-23T15:47:05.598Z,96057.78
2022-11-23T15:49:40.375Z,96057.88
2022-11-23T15:52:12.465Z,96057.97
2022-11-23T15:54:40.486Z,96057.84
2022-11-23T15:57:21.910Z,96061.41
2022-11-23T15:59:57.306Z,96062.61
2022-11-23T16:02:28.904Z,96061.92
2022-11-23T16:05:13.863Z,96058.35
2022-11-23T16:07:58.836Z,96066.23
2022-11-23T16:10:32.774Z,96069.30
2022-11-23T16:13:07.840Z,96082.20
2022-11-23T16:15:42.049Z,96079.95
2022-11-23T16:18:25.064Z,96084.05
2022-11-23T16:20:59.596Z,96088.69
2022-11-23T16:23:32.549Z,96086.66
2022-11-23T16:26:04.039Z,96087.64
2022-11-23T16:28:38.405Z,96085.62
2022-11-23T16:31:06.668Z,96084.48
2022-11-23T16:33:36.709Z,96084.32
2022-11-23T16:36:05.351Z,96081.30
2022-11-23T16:38:33.206Z,96078.58
2022-11-23T16:41:00.791Z,96088.88
2022-11-23T16:43:28.423Z,96087.50
2022-11-23T16:45:56.161Z,96094.44
2022-11-23T16:48:35.409Z,96096.05
2022-11-23T16:51:03.217Z,96091.98
2022-11-23T16:53:53.312Z,96092.34
2022-11-23T16:56:12.980Z,96091.49
2022-11-23T16:58:41.063Z,96094.42
2022-11-23T17:01:16.953Z,96098.13
2022-11-23T17:03:48.579Z,96098.94
2022-11-23T17:06:17.953Z,96091.98
2022-11-23T17:08:46.321Z,96087.62
2022-11-23T17:11:20.335Z,96095.46
2022-11-23T17:13:51.131Z,96094.83
2022-11-23T17:16:23.531Z,96088.33
2022-11-23T17:18:51.334Z,96088.17
2022-11-23T17:21:19.246Z,96092.27
2022-11-23T17:23:46.913Z,96093.20
2022-11-23T17:26:37.227Z,96084.83
2022-11-23T17:29:09.509Z,96087.49
2022-11-23T17:31:37.447Z,96095.55
2022-11-23T17:34:05.030Z,96094.62
2022-11-23T17:36:34.029Z,96097.38
2022-11-23T17:39:01.730Z,96101.19
2022-11-23T17:41:29.619Z,96100.52
2022-11-23T17:43:59.462Z,96103.86
2022-11-23T17:46:31.460Z,96104.55
2022-11-23T17:49:01.473Z,96101.28
2022-11-23T17:51:29.577Z,96102.75
2022-11-23T17:53:58.156Z,96107.69
2022-11-23T17:56:26.660Z,96109.41
2022-11-23T17:58:58.303Z,96105.03
2022-11-23T18:01:28.817Z,96108.05
2022-11-23T18:03:57.114Z,96103.05
2022-11-23T18:06:24.972Z,96101.34
2022-11-23T18:08:53.180Z,96105.16
2022-11-23T18:11:22.241Z,96106.63
2022-11-23T18:13:52.989Z,96102.18
2022-11-23T18:16:23.724Z,96101.69
2022-11-23T18:18:51.521Z,96112.16
2022-11-23T18:21:22.006Z,96117.31
2022-11-23T18:23:51.479Z,96117.31
2022-11-23T18:26:30.275Z,96115.27
2022-11-23T18:28:58.044Z,96115.88
2022-11-23T18:31:26.285Z,96117.30
2022-11-23T18:33:54.900Z,96117.05
2022-11-23T18:36:22.941Z,96122.63
2022-11-23T18:39:00.606Z,96120.48
2022-11-23T18:44:28.844Z,96130.34
2022-11-23T18:47:16.283Z,96127.13
2022-11-23T18:49:44.004Z,96132.70
2022-11-23T18:52:13.470Z,96132.93
2022-11-23T18:54:41.564Z,96136.69
2022-11-23T18:57:16.602Z,96136.69
2022-11-23T18:59:57.950Z,96142.55
2022-11-23T19:02:17.680Z,96143.08
2022-11-23T19:04:45.324Z,96147.88
2022-11-23T19:07:12.995Z,96155.20
2022-11-23T19:09:41.628Z,96153.27
2022-11-23T19:12:09.624Z,96150.55
2022-11-23T19:14:39.063Z,96146.95
2022-11-23T19:17:07.298Z,96149.77
2022-11-23T19:19:37.239Z,96151.27
2022-11-23T19:22:09.800Z,96154.97
2022-11-23T19:24:43.852Z,96154.35
2022-11-23T19:27:18.557Z,96149.81
2022-11-23T19:29:48.937Z,96153.64
2022-11-23T19:32:17.994Z,96148.45
2022-11-23T19:34:46.211Z,96146.49
2022-11-23T19:37:17.156Z,96145.55
2022-11-23T19:39:57.488Z,96153.88
2022-11-23T19:42:25.620Z,96157.23
2022-11-23T19:44:53.481Z,96161.83
2022-11-23T19:47:23.113Z,96159.00
2022-11-23T19:49:51.057Z,96167.58
2022-11-23T19:52:20.848Z,96171.95
2022-11-23T19:55:05.565Z,96172.61
2022-11-23T19:57:33.876Z,96169.55
2022-11-23T20:00:03.031Z,96180.55
2022-11-23T20:02:44.498Z,96177.64
2022-11-23T20:08:50.298Z,96190.28
2022-11-23T20:14:39.172Z,96196.52
2022-11-23T20:17:08.829Z,96201.10
2022-11-23T20:19:36.839Z,96201.16
2022-11-23T20:22:04.657Z,96209.12
2022-11-23T20:24:32.398Z,96208.11
2022-11-23T20:27:00.112Z,96209.73
2022-11-23T20:29:32.777Z,96220.58
2022-11-23T20:32:01.739Z,96220.41
2022-11-23T20:34:30.523Z,96219.16
2022-11-23T20:36:59.663Z,96229.00
2022-11-23T20:39:27.767Z,96230.56
2022-11-23T20:41:57.139Z,96226.58
2022-11-23T20:44:33.696Z,96229.00
2022-11-23T20:47:03.295Z,96233.27
2022-11-23T20:49:33.871Z,96228.27
2022-11-23T20:52:01.895Z,96224.57
2022-11-23T20:54:30.009Z,96221.97
2022-11-23T20:57:01.640Z,96230.02
2022-11-23T20:59:30.135Z,96232.95
2022-11-23T21:01:58.067Z,96229.05
2022-11-23T21:04:26.286Z,96230.66
2022-11-23T21:06:54.609Z,96233.09
2022-11-23T21:09:23.578Z,96250.34
2022-11-23T21:12:10.340Z,96248.78
2022-11-23T21:14:38.209Z,96250.89
2022-11-23T21:17:06.219Z,96253.00
2022-11-23T21:19:40.330Z,96246.59
2022-11-23T21:22:12.484Z,96245.77
2022-11-23T21:24:41.071Z,96245.45
2022-11-23T21:27:12.656Z,96242.52
2022-11-23T21:29:45.484Z,96243.58
2022-11-23T21:32:15.198Z,96238.03
2022-11-23T21:34:43.257Z,96240.45
2022-11-23T21:37:12.149Z,96244.67
2022-11-23T21:39:41.378Z,96248.66
2022-11-23T21:42:09.629Z,96247.88
2022-11-23T21:44:37.470Z,96248.42
2022-11-23T21:47:08.963Z,96255.05
2022-11-23T21:49:38.165Z,96262.47
2022-11-23T21:52:05.975Z,96259.59
2022-11-23T21:54:37.262Z,96260.36
2022-11-23T21:57:08.544Z,96263.48
2022-11-23T21:59:36.533Z,96266.64
2022-11-23T22:02:04.241Z,96261.80
2022-11-23T22:04:32.067Z,96265.50
2022-11-23T22:07:00.083Z,96270.75
2022-11-23T22:09:29.599Z,96269.89
2022-11-23T22:11:57.347Z,96274.84
2022-11-23T22:14:26.978Z,96269.48
2022-11-23T22:16:56.146Z,96273.70
2022-11-23T22:19:24.229Z,96278.91
2022-11-23T22:21:51.837Z,96280.65
2022-11-23T22:24:21.793Z,96282.94
2022-11-23T22:26:49.594Z,96279.39
2022-11-23T22:29:17.442Z,96280.81
2022-11-23T22:31:45.366Z,96270.14
2022-11-23T22:34:13.933Z,96273.20
2022-11-23T22:36:42.452Z,96273.15
2022-11-23T22:39:11.093Z,96271.22
2022-11-23T22:41:39.051Z,96263.48
2022-11-23T22:44:09.603Z,96255.68
2022-11-23T22:46:39.116Z,96253.52
2022-11-23T22:49:07.056Z,96234.33
2022-11-23T22:51:35.019Z,96251.58
2022-11-23T22:54:03.244Z,96256.58
2022-11-23T22:56:31.401Z,96254.64
2022-11-23T22:58:59.789Z,96259.91
2022-11-23T23:01:30.073Z,96255.05
2022-11-23T23:04:00.921Z,96254.44
2022-11-23T23:06:35.540Z,96253.60
2022-11-23T23:09:06.665Z,96253.00
2022-11-23T23:11:36.092Z,96254.23
2022-11-23T23:14:04.088Z,96251.52
2022-11-23T23:16:32.167Z,96254.67
2022-11-23T23:19:00.917Z,96257.79
2022-11-23T23:21:29.516Z,96261.23
2022-11-23T23:24:00.651Z,96257.50
2022-11-23T23:26:28.688Z,96258.77
2022-11-23T23:28:58.683Z,96256.89
2022-11-23T23:31:27.956Z,96251.48
2022-11-23T23:33:56.610Z,96251.13
2022-11-23T23:36:25.395Z,96250.27
2022-11-23T23:38:53.598Z,96253.09
2022-11-23T23:41:21.444Z,96256.70
2022-11-23T23:43:50.138Z,96252.64
2022-11-23T23:46:18.002Z,96262.45
2022-11-23T23:48:46.549Z,96257.58
2022-11-23T23:51:24.648Z,96258.07
2022-11-23T23:53:53.168Z,96263.33
2022-11-23T23:56:24.531Z,96265.90
2022-11-23T23:58:55.063Z,96265.61
